Time;durP1;ratioP1;P1;durP2;ratioP2;P2;SDS_P1;SDS_P2;PMS_P1;PMS_P2;Temp;Humidity;BMP_temperature;BMP_pressure;BME280_temperature;BME280_humidity;BME280_pressure;Samples;Min_cycle;Max_cycle;Signal;HPM_P1;HPM_P2
2023/04/15 00:02:21;;;;;;;;;17.00;16.33;;;;;10.64;73.45;99949.78;5077112;28;45463;-77
2023/04/15 00:04:47;;;;;;;;;14.33;14.33;;;;;10.27;73.64;99891.75;5080181;28;45465;-78
2023/04/15 00:07:13;;;;;;;;;18.00;12.67;;;;;11.09;73.44;100026.44;5061611;28;45303;-76
2023/04/15 00:09:40;;;;;;;;;16.00;16.00;;;;;10.58;73.21;99926.50;5079149;27;45729;-77
2023/04/15 00:12:06;;;;;;;;;16.00;14.00;;;;;11.26;73.69;100049.41;5080449;27;45237;-77
2023/04/15 00:14:34;;;;;;;;;14.67;13.00;;;;;10.78;73.68;99959.75;5062456;28;45307;-77
2023/04/15 00:17:00;;;;;;;;;15.67;14.33;;;;;11.18;74.08;100052.06;5080523;28;45275;-76
2023/04/15 00:19:25;;;;;;;;;16.00;15.67;;;;;11.13;74.09;100024.28;5079987;28;46563;-78
2023/04/15 00:21:51;;;;;;;;;10.67;10.67;;;;;11.07;74.65;100025.78;5062593;28;45461;-76
2023/04/15 00:24:16;;;;;;;;;20.33;17.33;;;;;10.91;75.02;100010.63;5080563;27;45487;-76
2023/04/15 00:26:41;;;;;;;;;14.67;14.67;;;;;10.93;74.86;100015.78;5080761;28;45162;-77
2023/04/15 00:29:07;;;;;;;;;18.00;18.00;;;;;10.27;75.54;99926.28;5061661;28;58677;-76
2023/04/15 00:31:32;;;;;;;;;18.67;18.00;;;;;10.77;75.54;100032.53;5079986;27;45405;-78
2023/04/15 00:33:58;;;;;;;;;17.67;14.67;;;;;10.14;75.85;99907.25;5062074;28;45428;-77
2023/04/15 00:36:24;;;;;;;;;19.00;17.33;;;;;10.68;75.76;99996.28;5062337;28;45285;-76
2023/04/15 00:38:49;;;;;;;;;18.00;18.00;;;;;10.69;75.58;99997.13;5061759;28;47413;-76
2023/04/15 00:41:15;;;;;;;;;17.33;15.00;;;;;10.77;75.64;100008.59;5061853;28;45315;-77
2023/04/15 00:43:41;;;;;;;;;14.33;14.33;;;;;10.41;75.79;99936.28;5080349;28;45453;-77
2023/04/15 00:46:06;;;;;;;;;22.33;19.33;;;;;10.28;75.45;99888.09;5080341;28;45200;-77
2023/04/15 00:48:32;;;;;;;;;14.00;14.00;;;;;10.95;75.34;100003.16;5061292;28;48520;-77
2023/04/15 00:50:58;;;;;;;;;17.67;15.33;;;;;10.93;75.32;100005.16;5062300;28;45330;-77
2023/04/15 00:53:23;;;;;;;;;15.67;14.33;;;;;10.99;76.01;99991.19;5085189;28;45415;-75
2023/04/15 00:55:49;;;;;;;;;17.00;15.00;;;;;10.80;76.07;99959.56;5087477;28;45256;-77
2023/04/15 00:58:15;;;;;;;;;16.67;14.33;;;;;10.85;75.91;99959.94;5064476;28;48367;-77
2023/04/15 01:00:42;;;;;;;;;16.00;13.67;;;;;11.06;75.33;99984.22;5080180;28;45287;-74
2023/04/15 01:03:08;;;;;;;;;16.33;16.33;;;;;11.08;75.19;99981.41;5061696;28;45530;-77
2023/04/15 01:05:35;;;;;;;;;14.33;14.00;;;;;11.07;75.40;99963.78;5079962;28;45195;-77
2023/04/15 01:08:01;;;;;;;;;18.00;15.33;;;;;11.11;75.47;99960.59;5079515;28;45327;-75
2023/04/15 01:10:27;;;;;;;;;20.00;16.33;;;;;10.89;75.59;99930.19;5061326;28;45462;-76
2023/04/15 01:12:52;;;;;;;;;15.00;15.00;;;;;11.37;75.54;99991.53;5079611;27;45411;-75
2023/04/15 01:15:19;;;;;;;;;14.67;13.00;;;;;11.38;74.94;99993.19;5079869;27;45403;-77
2023/04/15 01:17:45;;;;;;;;;18.00;15.00;;;;;11.39;75.68;100000.16;5079635;28;46251;-75
2023/04/15 01:20:11;;;;;;;;;17.67;16.33;;;;;11.15;75.33;99963.75;5079585;28;45346;-75
2023/04/15 01:22:37;;;;;;;;;9.67;9.67;;;;;11.31;75.80;100016.16;5079597;28;45422;-77
2023/04/15 01:25:31;;;;;;;;;14.00;12.00;;;;;11.30;75.95;99988.72;5079997;28;45609;-76
2023/04/15 01:27:57;;;;;;;;;18.00;14.00;;;;;11.26;76.18;99980.22;5059770;27;46625;-76
2023/04/15 01:30:22;;;;;;;;;13.00;12.00;;;;;11.04;76.61;99958.78;5079268;28;45236;-76
2023/04/15 01:32:47;;;;;;;;;12.67;11.00;;;;;10.81;76.77;99926.66;5079718;28;45238;-75
2023/04/15 01:35:13;;;;;;;;;10.67;9.67;;;;;11.11;76.68;99986.38;5079250;28;45219;-77
2023/04/15 01:37:38;;;;;;;;;13.00;13.00;;;;;10.91;77.38;99961.94;5079294;28;46811;-76
2023/04/15 01:40:04;;;;;;;;;17.67;12.67;;;;;10.79;77.70;99937.47;5079346;28;45528;-77
2023/04/15 01:42:31;;;;;;;;;16.67;14.00;;;;;9.87;77.58;99795.00;5061208;27;45506;-77
2023/04/15 01:44:56;;;;;;;;;14.67;12.67;;;;;11.07;77.27;99985.88;5079135;28;45287;-77
2023/04/15 01:47:22;;;;;;;;;11.67;11.67;;;;;10.83;77.79;99945.97;5077546;28;48362;-77
2023/04/15 01:49:47;;;;;;;;;13.00;12.67;;;;;10.94;78.11;99965.09;5079058;28;45427;-78
2023/04/15 01:52:13;;;;;;;;;14.00;14.00;;;;;10.96;78.31;99962.25;5079068;28;45407;-79
2023/04/15 01:54:38;;;;;;;;;10.67;8.33;;;;;10.57;78.06;99895.59;5078148;27;45339;-77
2023/04/15 01:57:04;;;;;;;;;13.00;13.00;;;;;10.87;77.73;99942.81;5078774;27;45563;-77
2023/04/15 01:59:30;;;;;;;;;15.67;13.00;;;;;11.12;77.49;99967.59;5057074;28;45794;-77
2023/04/15 02:01:56;;;;;;;;;10.67;10.67;;;;;11.05;77.99;99977.25;5058691;28;45463;-76
2023/04/15 02:04:21;;;;;;;;;13.67;12.00;;;;;10.22;78.12;99830.31;5057968;28;45444;-77
2023/04/15 02:06:47;;;;;;;;;9.00;9.00;;;;;10.95;77.47;99955.28;5041340;28;47489;-77
2023/04/15 02:09:12;;;;;;;;;9.67;9.67;;;;;11.03;77.61;99952.63;5057516;28;45480;-76
2023/04/15 02:11:38;;;;;;;;;10.67;9.33;;;;;11.30;77.49;99995.84;5057427;28;45335;-76
2023/04/15 02:14:04;;;;;;;;;10.33;10.33;;;;;10.96;77.45;99943.63;5040530;28;45484;-75
2023/04/15 02:16:31;;;;;;;;;11.67;9.67;;;;;11.34;76.92;99989.19;5058355;28;45913;-76
2023/04/15 02:18:56;;;;;;;;;8.67;8.67;;;;;11.37;76.98;99980.88;5058474;28;45318;-76
2023/04/15 02:21:21;;;;;;;;;9.33;8.33;;;;;10.86;76.30;99895.13;5077622;28;45343;-76
2023/04/15 02:23:47;;;;;;;;;12.67;11.67;;;;;11.18;76.77;99956.28;5078797;28;45482;-78
2023/04/15 02:26:13;;;;;;;;;10.67;10.00;;;;;10.54;76.15;99846.25;5078291;27;46231;-76
2023/04/15 02:28:38;;;;;;;;;9.67;9.33;;;;;11.42;76.90;99998.03;5060173;28;45973;-76
2023/04/15 02:31:05;;;;;;;;;7.67;7.67;;;;;11.31;76.84;99984.22;5060316;28;45411;-76
2023/04/15 02:33:31;;;;;;;;;8.67;8.00;;;;;11.47;76.32;100014.31;5078477;28;45488;-77
2023/04/15 02:35:56;;;;;;;;;10.00;10.00;;;;;11.45;76.70;100010.16;5059918;28;48614;-78
2023/04/15 02:38:22;;;;;;;;;8.67;8.67;;;;;11.51;76.62;100030.78;5078751;28;45455;-76
2023/04/15 02:40:49;;;;;;;;;12.00;9.33;;;;;11.53;76.88;100028.78;5062394;27;45742;-76
2023/04/15 02:43:15;;;;;;;;;8.67;8.67;;;;;11.37;77.08;100002.16;5084847;28;45213;-76
2023/04/15 02:45:42;;;;;;;;;11.00;10.00;;;;;11.55;77.16;100032.09;5059847;28;45937;-76
2023/04/15 02:48:07;;;;;;;;;7.67;7.33;;;;;11.55;76.89;100032.09;5078145;27;45480;-77
2023/04/15 02:50:33;;;;;;;;;9.33;8.00;;;;;11.28;76.44;99996.84;5078209;28;45376;-76
2023/04/15 02:53:00;;;;;;;;;9.33;8.00;;;;;11.46;76.51;100022.47;5078317;28;45388;-78
2023/04/15 02:55:26;;;;;;;;;7.00;7.00;;;;;11.33;76.27;100014.16;5060208;28;46864;-76
2023/04/15 02:57:51;;;;;;;;;10.00;10.00;;;;;11.51;76.87;100062.72;5077914;28;45253;-75
2023/04/15 03:00:17;;;;;;;;;12.33;10.33;;;;;11.42;76.58;100037.94;5060464;28;45164;-77
2023/04/15 03:02:44;;;;;;;;;12.00;12.00;;;;;10.98;76.90;99976.22;5078523;28;45196;-76
2023/04/15 03:05:12;;;;;;;;;12.00;11.33;;;;;11.13;76.75;100006.50;5059427;28;46029;-75
2023/04/15 03:07:39;;;;;;;;;15.67;14.67;;;;;11.35;76.87;100038.75;5059269;28;45486;-76
2023/04/15 03:10:05;;;;;;;;;14.67;14.67;;;;;11.20;77.04;100018.13;5077990;28;45354;-74
2023/04/15 03:12:30;;;;;;;;;15.00;15.00;;;;;10.83;76.92;99959.28;5059852;28;45343;-75
2023/04/15 03:14:55;;;;;;;;;15.00;13.67;;;;;11.56;77.02;100065.72;5077309;28;46273;-77
2023/04/15 03:17:21;;;;;;;;;14.00;14.00;;;;;11.63;77.31;100077.38;5059570;28;45324;-76
2023/04/15 03:19:46;;;;;;;;;15.33;15.33;;;;;11.46;76.92;100059.72;5078059;28;45331;-77
2023/04/15 03:22:11;;;;;;;;;17.33;16.33;;;;;10.89;76.61;99958.59;5078022;28;45238;-76
2023/04/15 03:24:37;;;;;;;;;17.00;16.00;;;;;11.66;76.70;100098.34;5077590;28;45547;-76
2023/04/15 03:27:02;;;;;;;;;11.33;11.00;;;;;11.61;76.69;100099.81;5077764;28;45372;-78
2023/04/15 03:29:27;;;;;;;;;16.67;11.00;;;;;11.51;75.71;100100.00;5077936;28;45291;-76
2023/04/15 03:31:53;;;;;;;;;11.67;11.67;;;;;11.01;76.30;100025.59;5077844;28;45601;-77
2023/04/15 03:34:19;;;;;;;;;14.33;11.33;;;;;11.32;76.11;100069.19;5077469;28;45769;-76
2023/04/15 03:36:45;;;;;;;;;12.00;12.00;;;;;11.32;76.32;100077.19;5077380;27;45264;-77
2023/04/15 03:39:11;;;;;;;;;8.00;8.00;;;;;11.17;76.25;100055.72;5059234;28;45481;-76
2023/04/15 03:41:36;;;;;;;;;10.67;10.67;;;;;11.44;75.40;100113.13;5077496;28;45174;-76
2023/04/15 03:44:01;;;;;;;;;8.67;8.67;;;;;10.96;75.22;100056.19;5077145;28;45613;-78
2023/04/15 03:46:27;;;;;;;;;10.00;9.33;;;;;11.27;75.60;100109.63;5055244;28;45357;-77
2023/04/15 03:48:52;;;;;;;;;12.33;10.33;;;;;10.11;75.71;99913.75;5056998;28;45344;-77
2023/04/15 03:51:17;;;;;;;;;9.67;9.00;;;;;10.95;75.52;100066.97;5039248;28;45572;-76
2023/04/15 03:53:43;;;;;;;;;9.67;8.33;;;;;10.61;75.57;100017.41;5049767;28;47811;-77
2023/04/15 03:56:08;;;;;;;;;10.00;7.33;;;;;10.90;75.23;100070.13;5077336;28;45395;-78
2023/04/15 03:58:33;;;;;;;;;7.00;7.00;;;;;10.97;75.25;100083.59;5077369;28;45315;-77
2023/04/15 04:00:59;;;;;;;;;7.33;6.00;;;;;11.15;75.06;100118.06;5077445;27;45513;-77
2023/04/15 04:03:24;;;;;;;;;4.67;4.67;;;;;10.43;74.88;100003.38;5058302;28;63863;-77
2023/04/15 04:05:50;;;;;;;;;3.00;3.00;;;;;11.15;74.99;100126.88;5077103;28;45387;-76
2023/04/15 04:08:15;;;;;;;;;4.33;4.33;;;;;11.05;75.00;100115.56;5075931;28;45475;-77
2023/04/15 04:10:41;;;;;;;;;6.00;4.00;;;;;10.99;75.08;100110.88;5076302;28;45493;-75
2023/04/15 04:13:06;;;;;;;;;4.00;3.00;;;;;11.19;74.97;100138.03;5075489;28;47928;-77
2023/04/15 04:15:32;;;;;;;;;2.00;2.00;;;;;11.17;74.70;100140.00;5076503;27;45412;-78
2023/04/15 04:17:57;;;;;;;;;4.00;4.00;;;;;11.11;74.89;100157.47;5077592;28;45293;-76
2023/04/15 04:20:22;;;;;;;;;2.00;2.00;;;;;11.06;74.78;100151.81;5077381;28;45545;-78
2023/04/15 04:22:49;;;;;;;;;3.00;2.67;;;;;10.83;75.40;100127.63;5076959;28;47066;-75
2023/04/15 04:25:15;;;;;;;;;3.00;1.00;;;;;10.44;75.13;100068.81;5077732;28;45281;-77
2023/04/15 04:27:40;;;;;;;;;8.00;5.00;;;;;10.95;75.43;100157.41;5083803;28;45264;-77
2023/04/15 04:30:06;;;;;;;;;5.33;3.00;;;;;10.73;75.06;100140.19;5082149;28;45285;-76
2023/04/15 04:32:32;;;;;;;;;2.33;2.33;;;;;10.73;75.32;100132.22;5080455;28;45784;-76
2023/04/15 04:34:57;;;;;;;;;1.67;1.67;;;;;10.72;75.48;100119.09;5080534;28;45344;-78
2023/04/15 04:37:23;;;;;;;;;1.00;1.00;;;;;10.88;74.75;100161.72;5080456;28;45294;-76
2023/04/15 04:39:49;;;;;;;;;3.67;2.00;;;;;10.83;75.32;100158.72;5061931;28;45415;-78
2023/04/15 04:42:14;;;;;;;;;1.00;1.00;;;;;10.73;75.46;100145.53;5080177;28;45257;-76
2023/04/15 04:44:39;;;;;;;;;1.67;1.67;;;;;10.81;75.70;100155.34;5058390;28;45443;-77
2023/04/15 04:47:06;;;;;;;;;1.33;0.00;;;;;10.40;75.20;100083.38;5060581;28;45392;-75
2023/04/15 04:49:31;;;;;;;;;2.33;1.33;;;;;10.64;75.15;100123.41;5060672;28;45293;-77
2023/04/15 04:51:57;;;;;;;;;1.00;1.00;;;;;10.96;75.03;100191.81;5058185;28;48433;-77
2023/04/15 04:54:22;;;;;;;;;1.00;1.00;;;;;10.96;75.16;100186.50;5059519;28;45249;-77
2023/04/15 04:56:48;;;;;;;;;1.00;1.00;;;;;10.72;75.20;100159.81;5059619;28;45757;-77
2023/04/15 04:59:13;;;;;;;;;2.33;2.33;;;;;10.70;75.37;100152.97;5041775;28;45282;-76
2023/04/15 05:01:39;;;;;;;;;0.00;0.00;;;;;10.65;74.70;100135.69;5059301;28;46460;-75
2023/04/15 05:04:06;;;;;;;;;1.67;1.00;;;;;11.03;75.05;100204.50;5059645;28;45499;-75
2023/04/15 05:06:31;;;;;;;;;0.67;0.67;;;;;10.98;74.47;100210.28;5059565;28;45223;-76
2023/04/15 05:08:57;;;;;;;;;0.00;0.00;;;;;10.82;74.72;100184.47;5041582;28;45229;-77
2023/04/15 05:11:22;;;;;;;;;2.00;2.00;;;;;10.61;74.40;100176.88;5059206;28;45775;-76
2023/04/15 05:13:47;;;;;;;;;1.00;1.00;;;;;10.68;74.47;100184.22;5060010;28;45467;-75
2023/04/15 05:16:13;;;;;;;;;1.00;1.00;;;;;10.15;74.22;100103.66;5061143;28;51572;-77
2023/04/15 05:18:38;;;;;;;;;1.00;1.00;;;;;10.84;74.08;100221.53;5079886;27;45320;-76
2023/04/15 05:21:03;;;;;;;;;0.00;0.00;;;;;10.58;74.37;100182.50;5061166;28;48351;-77
2023/04/15 05:23:29;;;;;;;;;0.33;0.33;;;;;10.72;74.09;100209.50;5078203;28;45505;-78
2023/04/15 05:25:54;;;;;;;;;1.00;1.00;;;;;10.95;74.49;100254.00;5079681;28;45439;-77
2023/04/15 05:28:20;;;;;;;;;0.33;0.33;;;;;10.87;74.48;100245.16;5079514;28;45402;-77
2023/04/15 05:30:45;;;;;;;;;0.00;0.00;;;;;10.79;73.92;100237.09;5061026;28;48876;-76
2023/04/15 05:33:11;;;;;;;;;1.00;1.00;;;;;10.52;73.57;100203.56;5079390;28;45407;-76
2023/04/15 05:35:36;;;;;;;;;0.67;0.67;;;;;10.07;73.59;100162.03;5079371;28;45324;-77
2023/04/15 05:38:01;;;;;;;;;2.00;2.00;;;;;10.90;73.60;100292.69;5079672;27;45316;-77
2023/04/15 05:40:27;;;;;;;;;1.00;1.00;;;;;10.85;74.00;100281.69;5077928;27;45822;-76
2023/04/15 05:42:52;;;;;;;;;0.67;0.67;;;;;10.81;73.59;100298.94;5078018;28;45863;-77
2023/04/15 05:45:18;;;;;;;;;1.00;1.00;;;;;9.78;73.96;100130.44;5079328;28;45455;-76
2023/04/15 05:47:43;;;;;;;;;0.00;0.00;;;;;10.64;74.30;100285.56;5061043;28;45636;-77
2023/04/15 05:50:09;;;;;;;;;0.33;0.33;;;;;10.77;74.78;100298.41;5079055;28;45640;-75
2023/04/15 05:52:34;;;;;;;;;0.33;0.33;;;;;10.82;74.60;100300.63;5060412;28;45910;-77
2023/04/15 05:55:00;;;;;;;;;2.00;1.00;;;;;10.59;74.98;100266.56;5060761;28;45341;-77
2023/04/15 05:57:25;;;;;;;;;2.00;2.00;;;;;10.87;74.77;100319.59;5079603;27;45438;-75
2023/04/15 05:59:51;;;;;;;;;1.00;1.00;;;;;10.56;74.35;100284.66;5078658;28;45620;-77
2023/04/15 06:02:17;;;;;;;;;2.00;2.00;;;;;10.74;74.85;100320.00;5078914;27;45384;-76
2023/04/15 06:04:42;;;;;;;;;2.00;2.00;;;;;10.57;74.83;100292.47;5078834;28;45420;-77
2023/04/15 06:07:08;;;;;;;;;2.67;1.00;;;;;10.40;74.72;100261.44;5078861;28;45519;-76
2023/04/15 06:09:33;;;;;;;;;2.00;2.00;;;;;9.92;74.80;100201.59;5078995;28;46335;-77
2023/04/15 06:12:00;;;;;;;;;2.00;2.00;;;;;10.63;74.69;100323.75;5074488;27;45406;-76
2023/04/15 06:14:25;;;;;;;;;2.00;1.00;;;;;10.34;75.83;100280.66;5090521;27;45317;-80
2023/04/15 06:16:51;;;;;;;;;0.33;0.33;;;;;10.71;75.40;100351.41;5087522;27;45714;-77
2023/04/15 06:19:17;;;;;;;;;2.33;1.00;;;;;10.63;75.41;100345.03;5090313;27;45531;-78
2023/04/15 06:21:43;;;;;;;;;2.00;2.00;;;;;10.43;75.30;100316.13;5069707;27;45470;-77
2023/04/15 06:24:08;;;;;;;;;2.00;2.00;;;;;10.36;75.32;100305.25;5088953;27;45377;-77
2023/04/15 06:26:33;;;;;;;;;1.00;1.00;;;;;9.92;75.67;100238.75;5057455;28;45332;-77
2023/04/15 06:28:59;;;;;;;;;2.33;2.00;;;;;10.77;75.55;100386.16;5073802;27;46119;-77
2023/04/15 06:31:25;;;;;;;;;3.33;2.00;;;;;10.72;75.57;100367.19;5078616;28;45268;-77
2023/04/15 06:33:50;;;;;;;;;2.00;2.00;;;;;10.82;75.60;100407.84;5078417;28;45513;-76
2023/04/15 06:36:15;;;;;;;;;2.00;2.00;;;;;10.72;75.12;100406.25;5057693;28;45271;-76
2023/04/15 06:38:41;;;;;;;;;3.00;2.00;;;;;10.30;75.43;100327.13;5057649;28;53168;-75
2023/04/15 06:41:06;;;;;;;;;1.00;1.00;;;;;10.59;75.54;100386.19;5084189;27;45400;-79
2023/04/15 06:43:32;;;;;;;;;2.00;2.00;;;;;10.80;75.25;100412.44;5080082;28;45519;-77
2023/04/15 06:45:57;;;;;;;;;2.00;2.00;;;;;10.39;75.24;100347.47;5078087;28;45495;-76
2023/04/15 06:48:23;;;;;;;;;1.00;1.00;;;;;10.77;75.90;100409.25;5059542;28;48337;-73
2023/04/15 06:50:49;;;;;;;;;2.00;2.00;;;;;10.74;74.76;100409.56;5077724;28;45260;-76
2023/04/15 06:53:14;;;;;;;;;1.67;1.67;;;;;10.96;75.08;100446.31;5072676;27;46696;-76
2023/04/15 06:55:40;;;;;;;;;3.00;3.00;;;;;10.69;75.11;100393.25;5054806;28;45406;-76
2023/04/15 06:58:06;;;;;;;;;3.33;2.33;;;;;10.61;74.81;100392.22;5055783;28;46086;-77
2023/04/15 07:00:32;;;;;;;;;2.00;2.00;;;;;10.54;74.59;100383.16;5038364;28;45436;-77
2023/04/15 07:02:59;;;;;;;;;4.00;4.00;;;;;10.94;75.04;100461.59;5038482;28;45432;-77
2023/04/15 07:05:25;;;;;;;;;3.67;2.00;;;;;10.46;74.38;100388.41;5055725;28;45301;-78
2023/04/15 07:07:50;;;;;;;;;2.00;2.00;;;;;10.81;74.85;100448.72;5072909;27;47870;-77
2023/04/15 07:10:16;;;;;;;;;1.00;1.00;;;;;11.02;75.00;100488.28;5058025;28;45424;-78
2023/04/15 07:12:41;;;;;;;;;3.00;2.00;;;;;10.97;74.71;100474.59;5039326;28;45328;-78
2023/04/15 07:15:07;;;;;;;;;1.00;1.00;;;;;10.46;74.96;100401.69;5039667;28;45255;-80
2023/04/15 07:17:33;;;;;;;;;4.00;3.00;;;;;11.13;74.74;100498.69;5039252;28;46849;-78
2023/04/15 07:19:58;;;;;;;;;6.00;4.33;;;;;10.97;74.77;100474.59;5039067;28;45628;-78
2023/04/15 07:22:24;;;;;;;;;4.33;3.33;;;;;10.63;75.26;100410.66;5057794;28;45403;-77
2023/04/15 07:24:49;;;;;;;;;2.33;2.00;;;;;11.19;75.28;100515.84;5042726;28;45510;-78
2023/04/15 07:27:15;;;;;;;;;2.67;2.67;;;;;10.87;74.27;100489.81;5075043;28;47100;-77
2023/04/15 07:29:41;;;;;;;;;1.00;1.00;;;;;11.05;74.91;100500.44;5057463;28;45547;-77
2023/04/15 07:32:09;;;;;;;;;1.00;1.00;;;;;11.14;74.90;100526.13;5073011;28;45602;-80
2023/04/15 07:34:35;;;;;;;;;2.33;1.00;;;;;11.13;75.70;100533.28;5057671;28;45599;-77
2023/04/15 07:37:00;;;;;;;;;1.67;1.33;;;;;11.07;75.59;100536.56;5038923;28;45445;-77
2023/04/15 07:39:26;;;;;;;;;2.00;2.00;;;;;11.12;76.23;100530.75;5056845;28;45183;-77
2023/04/15 07:41:51;;;;;;;;;3.33;3.00;;;;;11.11;76.04;100548.56;5038844;28;45222;-77
2023/04/15 07:44:17;;;;;;;;;3.00;3.00;;;;;10.78;76.27;100496.03;5057438;28;45210;-82
2023/04/15 07:46:42;;;;;;;;;4.33;4.00;;;;;11.13;76.90;100570.53;5072283;28;45795;-77
2023/04/15 07:49:08;;;;;;;;;3.00;3.00;;;;;10.94;76.55;100515.63;5057394;28;45359;-76
2023/04/15 07:51:33;;;;;;;;;3.00;3.00;;;;;10.83;76.00;100497.25;5055983;28;45379;-81
2023/04/15 07:53:58;;;;;;;;;1.67;1.67;;;;;11.39;74.24;100589.22;5039153;28;45534;-80
2023/04/15 07:56:25;;;;;;;;;1.00;1.00;;;;;11.23;73.83;100560.66;5055876;28;46970;-78
2023/04/15 07:58:50;;;;;;;;;4.00;4.00;;;;;11.16;73.77;100554.25;5058131;28;45537;-78
2023/04/15 08:01:16;;;;;;;;;1.00;1.00;;;;;11.35;74.10;100597.66;5044267;28;44879;-78
2023/04/15 08:03:42;;;;;;;;;1.00;1.00;;;;;11.18;74.41;100576.22;5041750;28;45504;-78
2023/04/15 08:06:07;;;;;;;;;1.00;1.00;;;;;11.27;74.24;100580.66;5060052;28;46063;-79
2023/04/15 08:08:32;;;;;;;;;1.00;1.00;;;;;11.37;74.59;100607.16;5060075;28;45499;-78
2023/04/15 08:10:58;;;;;;;;;0.67;0.67;;;;;11.30;74.31;100600.78;5041997;28;45470;-78
2023/04/15 08:13:24;;;;;;;;;1.00;1.00;;;;;10.85;73.26;100544.97;5061127;28;45301;-77
2023/04/15 08:16:20;;;;;;;;;1.00;1.00;;;;;11.24;73.73;100626.19;5061028;28;46111;-78
2023/04/15 08:18:47;;;;;;;;;2.00;2.00;;;;;11.14;74.26;100617.44;5042336;28;45567;-78
2023/04/15 08:21:12;;;;;;;;;3.00;3.00;;;;;11.19;74.19;100623.13;5059231;28;45286;-78
2023/04/15 08:23:38;;;;;;;;;1.00;1.00;;;;;10.83;74.03;100555.78;5058483;28;45470;-78
2023/04/15 08:26:04;;;;;;;;;2.00;2.00;;;;;10.95;73.83;100577.66;5059883;28;45397;-78
2023/04/15 08:28:30;;;;;;;;;3.33;2.33;;;;;11.34;73.58;100655.38;5041827;28;45411;-79
2023/04/15 08:30:56;;;;;;;;;1.00;1.00;;;;;11.20;73.65;100643.41;5041930;28;45399;-79
2023/04/15 08:33:21;;;;;;;;;3.00;3.00;;;;;11.24;74.10;100651.97;5041782;28;45427;-77
2023/04/15 08:35:47;;;;;;;;;6.33;5.00;;;;;11.25;74.53;100648.31;5042134;28;45903;-79
2023/04/15 08:38:13;;;;;;;;;3.00;3.00;;;;;10.93;73.74;100606.22;5042000;28;45332;-78
2023/04/15 08:40:44;;;;;;;;;3.00;3.00;;;;;11.09;73.06;100637.50;5060190;28;45435;-79
2023/04/15 08:43:14;;;;;;;;;5.00;5.00;;;;;11.37;72.49;100679.03;5060020;28;45541;-77
2023/04/15 08:45:40;;;;;;;;;15.00;12.33;;;;;9.24;72.42;100328.56;5041362;28;48133;-79
2023/04/15 08:48:08;;;;;;;;;1.67;1.67;;;;;11.41;71.93;100698.19;5041546;28;46202;-79
2023/04/15 08:50:34;;;;;;;;;3.67;2.67;;;;;11.28;71.92;100662.16;5058447;28;45276;-77
2023/04/15 08:53:00;;;;;;;;;4.00;4.00;;;;;11.53;72.12;100705.81;5075042;27;45511;-78
2023/04/15 08:55:29;;;;;;;;;2.00;2.00;;;;;10.34;71.52;100510.00;5041224;28;45353;-77
2023/04/15 08:57:55;;;;;;;;;3.67;3.67;;;;;11.55;71.79;100713.66;5059384;28;45496;-77
2023/04/15 09:00:21;;;;;;;;;4.67;3.33;;;;;11.37;70.93;100678.19;5059737;28;45471;-77
2023/04/15 09:02:47;;;;;;;;;1.67;1.00;;;;;11.60;69.83;100727.34;5041947;28;45490;-78
2023/04/15 09:05:12;;;;;;;;;1.67;1.67;;;;;11.14;70.18;100657.34;5059542;28;45751;-78
2023/04/15 09:07:38;;;;;;;;;4.00;2.67;;;;;11.45;70.05;100707.59;5040994;28;45534;-76
2023/04/15 09:10:04;;;;;;;;;2.00;2.00;;;;;11.14;70.13;100686.59;5041246;28;45624;-79
2023/04/15 09:12:30;;;;;;;;;3.00;3.00;;;;;11.32;70.13;100718.56;5059615;28;45595;-78
2023/04/15 09:14:56;;;;;;;;;3.33;3.00;;;;;11.34;70.59;100705.13;5040527;28;48141;-78
2023/04/15 09:17:23;;;;;;;;;5.67;2.00;;;;;11.55;69.88;100721.66;5059231;28;45430;-79
2023/04/15 09:19:49;;;;;;;;;1.00;1.00;;;;;11.73;69.32;100711.84;5059471;28;45462;-78
2023/04/15 09:22:15;;;;;;;;;3.33;3.33;;;;;12.26;68.92;100761.66;5040915;28;45561;-77
2023/04/15 09:24:42;;;;;;;;;3.00;1.67;;;;;12.78;66.65;100767.81;5058871;28;46234;-77
2023/04/15 09:27:07;;;;;;;;;2.00;2.00;;;;;12.44;66.24;100631.81;5059038;28;45309;-76
2023/04/15 09:29:33;;;;;;;;;4.33;4.33;;;;;13.21;63.90;100718.00;5040813;28;45619;-78
2023/04/15 09:32:15;;;;;;;;;4.00;4.00;;;;;13.77;62.78;100785.13;5059225;28;45419;-77
2023/04/15 09:34:40;;;;;;;;;2.00;2.00;;;;;13.13;62.34;100650.41;5058639;28;46086;-78
2023/04/15 09:37:06;;;;;;;;;4.00;4.00;;;;;13.42;60.86;100706.94;5058379;28;45389;-78
2023/04/15 09:39:49;;;;;;;;;3.33;3.33;;;;;13.72;61.38;100776.78;5058835;28;45425;-78
2023/04/15 09:42:16;;;;;;;;;6.67;5.00;;;;;13.77;61.38;100785.13;5041164;28;45558;-77
2023/04/15 09:44:42;;;;;;;;;3.67;3.67;;;;;13.72;61.54;100779.44;5059538;28;46379;-77
2023/04/15 09:47:07;;;;;;;;;2.00;2.00;;;;;13.58;61.60;100752.34;5047385;28;45330;-78
2023/04/15 09:49:33;;;;;;;;;2.00;2.00;;;;;13.92;60.81;100832.44;5058698;28;45596;-78
2023/04/15 09:52:02;;;;;;;;;2.67;2.67;;;;;13.42;60.55;100755.00;5074763;28;45424;-77
2023/04/15 09:54:33;;;;;;;;;3.00;3.00;;;;;12.88;61.55;100676.19;5040675;28;48412;-79
2023/04/15 09:57:08;;;;;;;;;4.33;4.00;;;;;12.95;60.55;100707.38;5074127;27;45553;-79
2023/04/15 09:59:34;;;;;;;;;3.00;3.00;;;;;12.74;60.85;100718.47;5058776;28;45563;-82
2023/04/15 10:02:09;;;;;;;;;5.00;2.33;;;;;12.68;62.29;100716.44;5040997;28;45510;-78
2023/04/15 10:04:38;;;;;;;;;6.67;5.33;;;;;13.32;62.88;100834.38;5077000;27;45632;-76
2023/04/15 10:07:05;;;;;;;;;3.00;3.00;;;;;13.17;62.57;100841.28;5042286;28;45272;-79
2023/04/15 10:09:32;;;;;;;;;3.00;3.00;;;;;13.24;63.23;100863.72;5074025;28;45233;-78
2023/04/15 10:11:58;;;;;;;;;6.00;5.00;;;;;13.12;63.31;100856.94;5040556;28;45546;-78
2023/04/15 10:14:26;;;;;;;;;2.00;2.00;;;;;12.88;63.33;100831.78;5073920;28;48022;-79
2023/04/15 10:16:56;;;;;;;;;5.33;5.33;;;;;12.95;63.91;100869.34;5058170;28;45460;-77
2023/04/15 10:19:26;;;;;;;;;3.00;3.00;;;;;12.23;63.73;100753.13;5039978;28;45224;-78
2023/04/15 10:21:53;;;;;;;;;0.67;0.67;;;;;13.04;63.84;100892.44;5040396;28;45622;-77
2023/04/15 10:24:19;;;;;;;;;4.00;4.00;;;;;12.58;63.35;100797.53;5073577;28;45546;-79
2023/04/15 10:26:45;;;;;;;;;7.00;5.33;;;;;13.10;63.04;100873.94;5056661;28;45183;-77
2023/04/15 10:29:11;;;;;;;;;7.33;7.33;;;;;12.71;62.43;100787.31;5039981;28;45455;-75
2023/04/15 10:31:37;;;;;;;;;15.33;13.00;;;;;13.04;62.69;100841.72;5057866;28;45546;-78
2023/04/15 10:34:05;;;;;;;;;5.67;5.00;;;;;13.08;61.80;100848.41;5057648;28;45753;-77
2023/04/15 10:36:32;;;;;;;;;4.67;4.67;;;;;12.68;61.82;100752.94;5057675;28;45307;-78
2023/04/15 10:38:57;;;;;;;;;12.33;11.00;;;;;13.36;62.24;100849.09;5039424;28;45519;-79
2023/04/15 10:41:30;;;;;;;;;7.67;6.00;;;;;13.32;61.08;100837.06;5058342;28;45337;-78
2023/04/15 10:44:02;;;;;;;;;11.33;7.33;;;;;13.44;61.36;100859.81;5058452;28;45450;-76
2023/04/15 10:46:40;;;;;;;;;18.00;16.33;;;;;13.07;60.51;100826.22;5039864;28;45617;-77
2023/04/15 10:49:11;;;;;;;;;14.00;12.33;;;;;13.62;60.03;100895.31;5058122;28;45397;-78
2023/04/15 10:51:45;;;;;;;;;19.33;17.00;;;;;13.76;60.97;100903.69;5058007;28;45202;-77
2023/04/15 10:54:15;;;;;;;;;5.33;5.00;;;;;13.90;59.60;100930.66;5072721;28;47384;-76
2023/04/15 10:56:42;;;;;;;;;5.00;5.00;;;;;13.61;60.05;100877.56;5039139;28;45302;-79
2023/04/15 10:59:08;;;;;;;;;8.33;6.67;;;;;13.50;59.69;100869.03;5073397;28;45310;-79
2023/04/15 11:01:53;;;;;;;;;8.00;7.67;;;;;13.37;59.79;100870.28;5039689;28;45263;-80
2023/04/15 11:04:54;;;;;;;;;5.67;5.00;;;;;13.81;59.91;100936.09;5039205;28;48067;-78
2023/04/15 11:07:40;;;;;;;;;11.67;9.33;;;;;13.66;59.16;100896.66;5057355;28;45431;-82
2023/04/15 11:10:17;;;;;;;;;7.00;7.00;;;;;12.35;58.96;100651.41;5057468;28;45482;-80
2023/04/15 11:12:49;;;;;;;;;6.00;6.00;;;;;14.22;58.03;100955.84;5058219;28;45561;-79
2023/04/15 11:15:26;;;;;;;;;5.33;5.33;;;;;14.26;56.99;100963.38;5057278;28;46979;-79
2023/04/15 11:17:51;;;;;;;;;5.67;5.67;;;;;13.84;57.03;100882.38;5039078;28;45494;-77
2023/04/15 11:20:17;;;;;;;;;4.67;4.33;;;;;13.34;56.37;100805.69;5057376;28;45543;-79